createdAt,value
2018-10-06T00:00:37.178Z,9.15
2018-10-06T00:03:04.672Z,12.05
2018-10-06T00:05:32.158Z,14.45
2018-10-06T00:07:59.637Z,11.05
2018-10-06T00:10:27.145Z,10.78
2018-10-06T00:12:54.642Z,12.50
2018-10-06T00:15:22.131Z,11.18
2018-10-06T00:17:49.609Z,11.05
2018-10-06T00:20:17.081Z,9.63
2018-10-06T00:22:44.525Z,8.23
2018-10-06T00:25:11.985Z,10.68
2018-10-06T00:27:39.510Z,11.08
2018-10-06T00:30:07.133Z,12.65
2018-10-06T00:32:34.635Z,14.28
2018-10-06T00:35:02.145Z,15.45
2018-10-06T00:37:29.607Z,12.45
2018-10-06T00:39:57.075Z,9.18
2018-10-06T00:42:24.543Z,11.00
2018-10-06T00:44:51.992Z,11.85
2018-10-06T00:47:19.573Z,10.48
2018-10-06T00:49:47.045Z,15.15
2018-10-06T00:52:14.558Z,10.20
2018-10-06T00:54:42.000Z,10.75
2018-10-06T00:57:09.480Z,12.30
2018-10-06T00:59:36.915Z,8.55
2018-10-06T01:02:04.406Z,12.05
2018-10-06T01:04:31.870Z,10.55
2018-10-06T01:06:59.378Z,12.50
2018-10-06T01:09:26.985Z,9.65
2018-10-06T01:11:54.606Z,13.00
2018-10-06T01:14:22.248Z,9.65
2018-10-06T01:16:49.816Z,10.08
2018-10-06T01:19:17.490Z,11.28
2018-10-06T01:21:44.994Z,11.40
2018-10-06T01:24:12.550Z,9.50
2018-10-06T01:26:40.019Z,11.05
2018-10-06T01:29:07.509Z,13.85
2018-10-06T01:31:35.013Z,8.48
2018-10-06T01:34:02.521Z,11.73
2018-10-06T01:36:29.993Z,10.38
2018-10-06T01:38:57.489Z,12.95
2018-10-06T01:41:24.976Z,10.98
2018-10-06T01:43:52.461Z,14.58
2018-10-06T01:46:20.014Z,10.63
2018-10-06T01:48:47.486Z,11.40
2018-10-06T01:51:14.970Z,14.18
2018-10-06T01:53:42.484Z,15.58
2018-10-06T01:56:09.983Z,11.85
2018-10-06T01:58:37.440Z,11.68
2018-10-06T02:01:04.926Z,13.40
2018-10-06T02:03:32.457Z,12.68
2018-10-06T02:05:59.943Z,12.95
2018-10-06T02:08:27.407Z,14.87
2018-10-06T02:10:54.870Z,12.15
2018-10-06T02:13:22.350Z,11.33
2018-10-06T02:15:49.836Z,11.43
2018-10-06T02:18:17.317Z,11.50
2018-10-06T02:20:44.827Z,12.53
2018-10-06T02:23:12.294Z,10.58
2018-10-06T02:25:39.791Z,14.87
2018-10-06T02:28:07.290Z,9.18
2018-10-06T02:30:34.795Z,14.53
2018-10-06T02:33:02.361Z,11.30
2018-10-06T02:35:29.844Z,12.65
2018-10-06T02:37:57.323Z,10.55
2018-10-06T02:40:24.814Z,11.08
2018-10-06T02:42:52.318Z,10.00
2018-10-06T02:45:19.800Z,12.90
2018-10-06T02:47:47.296Z,9.68
2018-10-06T02:50:14.808Z,10.58
2018-10-06T02:52:42.280Z,12.15
2018-10-06T02:55:09.784Z,11.53
2018-10-06T02:57:37.326Z,10.85
2018-10-06T03:00:04.870Z,22.15
2018-10-06T03:02:32.405Z,10.08
2018-10-06T03:04:59.901Z,14.40
2018-10-06T03:07:27.455Z,16.77
2018-10-06T03:09:54.955Z,10.82
2018-10-06T03:12:22.487Z,12.37
2018-10-06T03:14:49.971Z,9.65
2018-10-06T03:17:17.466Z,14.93
2018-10-06T03:19:44.929Z,9.80
2018-10-06T03:22:12.453Z,9.20
2018-10-06T03:24:39.956Z,15.13
2018-10-06T03:27:07.431Z,11.80
2018-10-06T03:29:34.917Z,13.70
2018-10-06T03:32:02.413Z,12.45
2018-10-06T03:34:29.914Z,14.75
2018-10-06T03:36:57.374Z,10.63
2018-10-06T03:39:24.845Z,9.93
2018-10-06T03:41:52.328Z,9.40
2018-10-06T03:44:19.807Z,8.48
2018-10-06T03:46:47.333Z,13.32
2018-10-06T03:49:14.829Z,10.18
2018-10-06T03:51:42.283Z,11.05
2018-10-06T03:54:10.672Z,14.50
2018-10-06T03:56:39.185Z,10.95
2018-10-06T03:59:06.727Z,11.80
2018-10-06T04:01:34.205Z,11.22
2018-10-06T04:04:01.723Z,12.35
2018-10-06T04:06:29.467Z,11.05
2018-10-06T04:08:57.851Z,11.70
2018-10-06T04:11:25.315Z,9.05
2018-10-06T04:13:52.805Z,11.88
2018-10-06T04:16:20.252Z,12.95
2018-10-06T04:18:47.727Z,10.78
2018-10-06T04:21:15.244Z,10.30
2018-10-06T04:23:42.722Z,11.73
2018-10-06T04:26:10.240Z,14.25
2018-10-06T04:28:37.718Z,9.68
2018-10-06T04:31:05.196Z,12.55
2018-10-06T04:33:32.891Z,14.93
2018-10-06T04:36:00.425Z,11.35
2018-10-06T04:38:27.922Z,8.70
2018-10-06T04:40:55.417Z,12.45
2018-10-06T04:43:22.921Z,9.80
2018-10-06T04:45:50.435Z,13.58
2018-10-06T04:48:17.913Z,12.13
2018-10-06T04:50:45.466Z,15.28
2018-10-06T04:53:12.938Z,12.68
2018-10-06T04:55:40.442Z,13.13
2018-10-06T04:58:07.941Z,14.05
2018-10-06T05:00:35.427Z,13.95
2018-10-06T05:03:02.925Z,10.38
2018-10-06T05:05:30.491Z,13.95
2018-10-06T05:07:58.035Z,13.70
2018-10-06T05:10:25.558Z,12.37
2018-10-06T05:12:53.038Z,13.55
2018-10-06T05:15:20.580Z,11.57
2018-10-06T05:17:48.068Z,10.18
2018-10-06T05:20:15.554Z,11.50
2018-10-06T05:22:43.082Z,16.27
2018-10-06T05:25:10.578Z,16.15
2018-10-06T05:27:38.081Z,15.68
2018-10-06T05:30:05.673Z,15.72
2018-10-06T05:32:33.160Z,22.87
2018-10-06T05:35:00.645Z,26.02
2018-10-06T05:37:28.160Z,26.45
2018-10-06T05:39:55.637Z,20.55
2018-10-06T05:42:23.203Z,22.93
2018-10-06T05:44:50.700Z,22.67
2018-10-06T05:47:18.210Z,18.30
2018-10-06T05:49:45.728Z,13.48
2018-10-06T05:52:13.263Z,12.33
2018-10-06T05:54:40.777Z,17.00
2018-10-06T05:57:08.350Z,12.80
2018-10-06T05:59:35.909Z,15.10
2018-10-06T06:02:03.455Z,12.95
2018-10-06T06:04:30.989Z,15.65
2018-10-06T06:06:58.516Z,15.60
2018-10-06T06:09:26.023Z,11.55
2018-10-06T06:11:53.500Z,12.05
2018-10-06T06:14:21.068Z,17.35
2018-10-06T06:16:48.570Z,13.25
2018-10-06T06:19:16.053Z,14.75
2018-10-06T06:21:43.602Z,14.13
2018-10-06T06:24:11.203Z,13.30
2018-10-06T06:26:38.740Z,16.17
2018-10-06T06:29:06.245Z,16.05
2018-10-06T06:31:33.913Z,54.42
2018-10-06T06:34:01.383Z,18.70
2018-10-06T06:36:28.835Z,15.88
2018-10-06T06:38:56.348Z,16.62
2018-10-06T06:41:23.879Z,12.55
2018-10-06T06:43:51.409Z,14.58
2018-10-06T06:46:18.873Z,13.00
2018-10-06T06:48:46.423Z,15.55
2018-10-06T06:51:13.960Z,21.35
2018-10-06T06:53:41.437Z,14.23
2018-10-06T06:56:08.995Z,10.70
2018-10-06T06:58:36.508Z,12.07
2018-10-06T07:01:04.051Z,12.97
2018-10-06T07:03:31.562Z,17.97
2018-10-06T07:05:59.077Z,11.30
2018-10-06T07:08:26.556Z,15.63
2018-10-06T07:10:54.070Z,13.37
2018-10-06T07:13:21.550Z,13.33
2018-10-06T07:15:49.120Z,11.93
2018-10-06T07:18:16.723Z,12.97
2018-10-06T07:20:44.216Z,10.07
2018-10-06T07:23:11.722Z,11.30
2018-10-06T07:25:39.283Z,11.10
2018-10-06T07:28:06.853Z,10.77
2018-10-06T07:30:34.441Z,10.00
2018-10-06T07:33:01.997Z,9.60
2018-10-06T07:35:29.603Z,9.83
2018-10-06T07:37:57.127Z,14.90
2018-10-06T07:40:24.609Z,9.20
2018-10-06T07:42:52.107Z,9.90
2018-10-06T07:45:19.762Z,9.07
2018-10-06T07:47:47.235Z,9.53
2018-10-06T07:50:14.737Z,8.83
2018-10-06T07:52:42.269Z,9.23
2018-10-06T07:55:09.821Z,9.30
2018-10-06T07:57:37.282Z,9.13
2018-10-06T08:00:04.835Z,9.10
2018-10-06T08:02:32.364Z,11.70
2018-10-06T08:05:00.015Z,17.50
2018-10-06T08:07:27.521Z,10.63
2018-10-06T08:09:55.050Z,9.67
2018-10-06T08:12:22.558Z,9.00
2018-10-06T08:14:50.044Z,8.93
2018-10-06T08:17:17.685Z,10.57
2018-10-06T08:19:45.218Z,7.73
2018-10-06T08:22:12.774Z,8.90
2018-10-06T08:24:40.285Z,10.30
2018-10-06T08:27:07.876Z,7.00
2018-10-06T08:29:35.454Z,7.80
2018-10-06T08:32:02.967Z,7.63
2018-10-06T08:34:30.509Z,8.23
2018-10-06T08:36:58.049Z,7.73
2018-10-06T08:39:25.577Z,9.13
2018-10-06T08:41:53.060Z,8.03
2018-10-06T08:44:20.589Z,7.47
2018-10-06T08:46:48.135Z,7.00
2018-10-06T08:49:15.670Z,7.00
2018-10-06T08:51:43.491Z,8.83
2018-10-06T08:54:11.023Z,7.23
2018-10-06T08:56:38.523Z,7.23
2018-10-06T08:59:05.993Z,5.73
2018-10-06T09:01:33.488Z,6.40
2018-10-06T09:04:01.030Z,6.60
2018-10-06T09:06:28.574Z,6.13
2018-10-06T09:08:56.080Z,6.17
2018-10-06T09:11:23.630Z,7.47
2018-10-06T09:13:51.103Z,8.37
2018-10-06T09:16:18.638Z,7.80
2018-10-06T09:18:46.159Z,7.20
2018-10-06T09:21:13.670Z,7.53
2018-10-06T09:23:41.173Z,6.93
2018-10-06T09:26:08.727Z,5.83
2018-10-06T09:28:36.205Z,6.87
2018-10-06T09:31:03.721Z,8.53
2018-10-06T09:33:31.305Z,5.90
2018-10-06T09:35:58.814Z,6.40
2018-10-06T09:38:26.307Z,8.13
2018-10-06T09:40:53.799Z,5.90
2018-10-06T09:43:21.316Z,5.70
2018-10-06T09:45:48.852Z,6.97
2018-10-06T09:48:16.460Z,5.40
2018-10-06T09:50:44.031Z,5.30
2018-10-06T09:53:11.507Z,6.67
2018-10-06T09:55:39.026Z,4.90
2018-10-06T09:58:06.654Z,4.80
2018-10-06T10:00:39.882Z,4.93
2018-10-06T10:03:13.155Z,5.43
2018-10-06T10:05:47.384Z,7.10
2018-10-06T10:08:14.837Z,5.10
2018-10-06T10:10:42.371Z,5.30
2018-10-06T10:13:09.942Z,4.83
2018-10-06T10:15:37.456Z,7.90
2018-10-06T10:18:05.221Z,4.87
2018-10-06T10:20:32.599Z,3.83
2018-10-06T10:23:01.371Z,8.90
2018-10-06T10:25:29.066Z,5.30
2018-10-06T10:27:56.597Z,4.47
2018-10-06T10:30:24.101Z,4.57
2018-10-06T10:32:51.731Z,3.80
2018-10-06T10:35:19.313Z,4.33
2018-10-06T10:37:46.923Z,4.57
2018-10-06T10:40:14.575Z,4.90
2018-10-06T10:42:42.133Z,4.43
2018-10-06T10:45:10.059Z,4.43
2018-10-06T10:47:37.858Z,4.83
2018-10-06T10:50:05.467Z,3.50
2018-10-06T10:52:32.957Z,3.70
2018-10-06T10:55:00.492Z,4.30
2018-10-06T10:57:28.443Z,4.67
2018-10-06T10:59:56.056Z,3.57
2018-10-06T11:02:23.545Z,4.40
2018-10-06T11:04:51.237Z,4.57
2018-10-06T11:07:18.804Z,3.53
2018-10-06T11:09:46.460Z,3.27
2018-10-06T11:12:14.016Z,3.90
2018-10-06T11:14:42.284Z,3.23
2018-10-06T11:17:09.857Z,5.80
2018-10-06T11:19:37.396Z,2.63
2018-10-06T11:22:04.912Z,3.60
2018-10-06T11:24:32.424Z,2.87
2018-10-06T11:27:00.019Z,3.37
2018-10-06T11:29:27.566Z,4.30
2018-10-06T11:31:55.391Z,3.03
2018-10-06T11:34:23.150Z,3.73
2018-10-06T11:36:50.754Z,3.53
2018-10-06T11:39:18.339Z,3.50
2018-10-06T11:41:46.291Z,2.87
2018-10-06T11:44:14.598Z,2.30
2018-10-06T11:46:42.251Z,2.47
2018-10-06T11:49:09.862Z,2.57
2018-10-06T11:51:37.600Z,2.57
2018-10-06T11:54:05.312Z,3.13
2018-10-06T11:56:32.933Z,4.43
2018-10-06T11:59:00.442Z,3.50
2018-10-06T12:01:28.030Z,2.67
2018-10-06T12:03:55.623Z,3.23
2018-10-06T12:06:23.237Z,7.10
2018-10-06T12:08:50.816Z,5.13
2018-10-06T12:11:18.351Z,5.80
2018-10-06T12:13:45.873Z,2.70
2018-10-06T12:16:13.428Z,3.43
2018-10-06T12:18:40.975Z,2.63
2018-10-06T12:21:08.487Z,2.83
2018-10-06T12:23:36.011Z,10.57
2018-10-06T12:26:03.605Z,6.23
2018-10-06T12:28:31.249Z,11.50
2018-10-06T12:30:59.413Z,7.90
2018-10-06T12:33:26.947Z,10.37
2018-10-06T12:35:54.527Z,6.40
2018-10-06T12:38:22.130Z,4.80
2018-10-06T12:40:49.700Z,6.30
2018-10-06T12:43:17.270Z,4.00
2018-10-06T12:45:45.646Z,6.60
2018-10-06T12:48:13.500Z,3.73
2018-10-06T12:50:41.005Z,3.57
2018-10-06T12:53:08.566Z,3.47
2018-10-06T12:55:36.124Z,3.30
2018-10-06T12:58:03.680Z,3.30
2018-10-06T13:00:31.222Z,3.40
2018-10-06T13:02:58.756Z,4.07
2018-10-06T13:05:26.491Z,4.27
2018-10-06T13:07:54.103Z,7.10
2018-10-06T13:10:21.744Z,3.37
2018-10-06T13:12:49.384Z,3.80
2018-10-06T13:15:17.472Z,4.10
2018-10-06T13:17:45.109Z,4.67
2018-10-06T13:20:12.645Z,4.27
2018-10-06T13:22:40.197Z,3.63
2018-10-06T13:25:07.752Z,4.03
2018-10-06T13:27:36.018Z,8.80
2018-10-06T13:30:03.734Z,5.80
2018-10-06T13:32:31.223Z,4.87
2018-10-06T13:34:58.784Z,4.17
2018-10-06T13:37:27.113Z,4.77
2018-10-06T13:39:54.978Z,5.77
2018-10-06T13:42:22.468Z,9.23
2018-10-06T13:44:49.993Z,4.67
2018-10-06T13:47:17.614Z,4.77
2018-10-06T13:49:45.290Z,6.30
2018-10-06T13:52:12.905Z,4.50
2018-10-06T13:54:40.414Z,3.37
2018-10-06T13:57:08.011Z,3.60
2018-10-06T13:59:35.591Z,4.20
2018-10-06T14:02:03.138Z,4.33
2018-10-06T14:04:30.784Z,5.10
2018-10-06T14:06:58.381Z,5.20
2018-10-06T14:09:25.932Z,6.60
2018-10-06T14:11:53.524Z,5.60
2018-10-06T14:14:21.085Z,9.27
2018-10-06T14:16:48.599Z,5.63
2018-10-06T14:19:16.150Z,5.73
2018-10-06T14:21:43.744Z,7.33
2018-10-06T14:24:11.225Z,8.53
2018-10-06T14:26:38.780Z,5.97
2018-10-06T14:29:06.322Z,6.03
2018-10-06T14:31:33.812Z,6.00
2018-10-06T14:34:01.323Z,6.63
2018-10-06T14:36:28.836Z,9.90
2018-10-06T14:38:56.442Z,6.60
2018-10-06T14:41:24.096Z,7.27
2018-10-06T14:43:51.565Z,6.90
2018-10-06T14:46:19.042Z,7.70
2018-10-06T14:48:46.593Z,6.70
2018-10-06T14:51:14.098Z,10.73
2018-10-06T14:53:41.619Z,6.60
2018-10-06T14:56:09.143Z,10.00
2018-10-06T14:58:36.678Z,7.57
2018-10-06T15:01:04.251Z,7.77
2018-10-06T15:03:31.958Z,6.70
2018-10-06T15:06:01.311Z,6.13
2018-10-06T15:08:28.852Z,8.17
2018-10-06T15:10:56.423Z,7.40
2018-10-06T15:13:23.963Z,9.53
2018-10-06T15:15:51.478Z,7.67
2018-10-06T15:18:18.977Z,6.97
2018-10-06T15:20:46.448Z,7.70
2018-10-06T15:23:13.948Z,7.90
2018-10-06T15:25:41.428Z,7.80
2018-10-06T15:28:08.961Z,7.27
2018-10-06T15:30:36.491Z,8.07
2018-10-06T15:33:04.002Z,16.57
2018-10-06T15:35:31.557Z,32.77
2018-10-06T15:37:59.053Z,23.43
2018-10-06T15:40:26.644Z,21.10
2018-10-06T15:42:54.168Z,10.70
2018-10-06T15:45:21.707Z,10.67
2018-10-06T15:47:49.294Z,8.27
2018-10-06T15:50:16.800Z,9.77
2018-10-06T15:52:44.323Z,33.53
2018-10-06T15:55:11.891Z,17.43
2018-10-06T15:57:39.436Z,15.83
2018-10-06T16:00:07.006Z,16.20
2018-10-06T16:02:34.610Z,19.83
2018-10-06T16:05:02.073Z,14.47
2018-10-06T16:07:29.616Z,21.27
2018-10-06T16:09:58.732Z,18.13
2018-10-06T16:12:26.373Z,20.23
2018-10-06T16:14:54.042Z,27.90
2018-10-06T16:17:21.980Z,19.77
2018-10-06T16:19:49.805Z,14.33
2018-10-06T16:22:17.361Z,18.03
2018-10-06T16:24:45.077Z,19.80
2018-10-06T16:27:12.794Z,11.93
2018-10-06T16:29:40.281Z,13.63
2018-10-06T16:32:08.231Z,16.47
2018-10-06T16:34:35.757Z,11.60
2018-10-06T16:37:03.375Z,12.90
2018-10-06T16:39:30.839Z,11.53
2018-10-06T16:41:58.697Z,13.00
2018-10-06T16:44:26.221Z,16.67
2018-10-06T16:46:53.749Z,13.07
2018-10-06T16:49:21.257Z,14.63
2018-10-06T16:51:48.849Z,25.50
2018-10-06T16:54:16.329Z,24.73
2018-10-06T16:56:43.963Z,33.30
2018-10-06T16:59:11.589Z,17.40
2018-10-06T17:01:39.150Z,17.13
2018-10-06T17:04:06.694Z,14.27
2018-10-06T17:06:34.250Z,15.17
2018-10-06T17:09:01.780Z,15.77
2018-10-06T17:11:29.301Z,14.63
2018-10-06T17:13:56.776Z,15.30
2018-10-06T17:16:24.405Z,18.73
2018-10-06T17:18:51.965Z,23.10
2018-10-06T17:21:19.522Z,26.27
2018-10-06T17:23:47.114Z,30.40
2018-10-06T17:26:14.665Z,21.40
2018-10-06T17:28:43.136Z,17.50
2018-10-06T17:31:10.690Z,19.00
2018-10-06T17:33:38.191Z,23.40
2018-10-06T17:36:05.838Z,18.37
2018-10-06T17:38:33.811Z,15.90
2018-10-06T17:41:01.427Z,17.97
2018-10-06T17:43:30.111Z,19.53
2018-10-06T17:45:58.033Z,17.40
2018-10-06T17:48:25.678Z,14.73
2018-10-06T17:50:53.377Z,14.27
2018-10-06T17:53:20.766Z,15.27
2018-10-06T17:55:48.697Z,14.43
2018-10-06T17:58:16.494Z,17.77
2018-10-06T18:00:43.980Z,15.27
2018-10-06T18:03:12.727Z,16.23
2018-10-06T18:05:40.911Z,19.90
2018-10-06T18:08:08.466Z,17.47
2018-10-06T18:10:36.024Z,16.67
2018-10-06T18:13:03.688Z,15.63
2018-10-06T18:15:31.258Z,16.40
2018-10-06T18:17:58.996Z,19.13
2018-10-06T18:20:26.885Z,21.60
2018-10-06T18:22:54.766Z,15.87
2018-10-06T18:25:22.321Z,16.70
2018-10-06T18:27:49.960Z,15.57
2018-10-06T18:30:17.492Z,18.63
2018-10-06T18:32:45.088Z,15.17
2018-10-06T18:35:12.667Z,14.93
2018-10-06T18:37:40.251Z,17.83
2018-10-06T18:40:07.895Z,15.40
2018-10-06T18:42:36.071Z,13.83
2018-10-06T18:45:04.427Z,13.80
2018-10-06T18:47:32.042Z,14.23
2018-10-06T18:49:59.824Z,15.33
2018-10-06T18:52:27.540Z,15.20
2018-10-06T18:54:55.029Z,16.30
2018-10-06T18:57:23.072Z,16.33
2018-10-06T18:59:51.222Z,13.75
2018-10-06T19:02:18.788Z,14.27
2018-10-06T19:04:46.372Z,19.10
2018-10-06T19:07:14.059Z,13.23
2018-10-06T19:09:41.642Z,13.50
2018-10-06T19:12:09.136Z,14.50
2018-10-06T19:14:39.299Z,12.97
2018-10-06T19:17:06.880Z,13.67
2018-10-06T19:19:34.546Z,17.73
2018-10-06T19:22:02.125Z,14.07
2018-10-06T19:24:29.679Z,13.50
2018-10-06T19:26:57.194Z,18.03
2018-10-06T19:29:24.743Z,13.67
2018-10-06T19:31:52.364Z,14.23
2018-10-06T19:34:19.927Z,13.60
2018-10-06T19:36:47.531Z,11.90
2018-10-06T19:39:15.049Z,12.60
2018-10-06T19:41:42.669Z,13.40
2018-10-06T19:44:10.176Z,12.40
2018-10-06T19:46:37.705Z,12.10
2018-10-06T19:49:05.328Z,14.77
2018-10-06T19:51:33.025Z,12.47
2018-10-06T19:54:00.628Z,11.40
2018-10-06T19:56:28.231Z,14.50
2018-10-06T19:58:55.836Z,11.77
2018-10-06T20:01:23.324Z,15.60
2018-10-06T20:03:50.934Z,12.13
2018-10-06T20:06:18.785Z,12.93
2018-10-06T20:08:46.467Z,14.10
2018-10-06T20:11:14.049Z,13.93
2018-10-06T20:13:41.730Z,13.93
2018-10-06T20:16:09.292Z,14.67
2018-10-06T20:18:36.843Z,13.90
2018-10-06T20:21:04.391Z,12.90
2018-10-06T20:23:31.930Z,12.17
2018-10-06T20:25:59.475Z,11.97
2018-10-06T20:28:26.964Z,11.57
2018-10-06T20:30:54.468Z,12.00
2018-10-06T20:33:21.983Z,15.07
2018-10-06T20:35:49.494Z,11.33
2018-10-06T20:38:17.227Z,14.13
2018-10-06T20:40:44.804Z,13.63
2018-10-06T20:43:12.304Z,14.07
2018-10-06T20:45:39.830Z,12.83
2018-10-06T20:48:07.754Z,11.50
2018-10-06T20:50:35.354Z,11.40
2018-10-06T20:53:03.115Z,14.77
2018-10-06T20:55:30.906Z,11.83
2018-10-06T20:57:58.444Z,11.43
2018-10-06T21:00:25.950Z,12.20
2018-10-06T21:02:53.506Z,11.00
2018-10-06T21:05:21.001Z,12.53
2018-10-06T21:07:48.545Z,13.47
2018-10-06T21:10:16.002Z,11.80
2018-10-06T21:12:43.508Z,11.50
2018-10-06T21:15:11.055Z,12.70
2018-10-06T21:17:38.548Z,11.90
2018-10-06T21:20:06.060Z,9.73
2018-10-06T21:22:33.523Z,12.87
2018-10-06T21:25:00.984Z,12.47
2018-10-06T21:27:28.445Z,12.25
2018-10-06T21:29:55.986Z,14.13
2018-10-06T21:32:23.522Z,13.90
2018-10-06T21:34:51.004Z,12.88
2018-10-06T21:37:18.615Z,12.00
2018-10-06T21:39:46.075Z,17.37
2018-10-06T21:42:13.539Z,13.40
2018-10-06T21:44:41.027Z,12.07
2018-10-06T21:47:08.516Z,12.30
2018-10-06T21:49:35.968Z,16.27
2018-10-06T21:52:03.666Z,12.70
2018-10-06T21:54:31.404Z,13.35
2018-10-06T21:56:59.039Z,13.10
2018-10-06T21:59:26.580Z,11.80
2018-10-06T22:01:54.081Z,11.25
2018-10-06T22:04:21.628Z,14.05
2018-10-06T22:06:49.253Z,12.30
2018-10-06T22:09:16.834Z,11.28
2018-10-06T22:11:44.430Z,12.40
2018-10-06T22:14:12.017Z,10.28
2018-10-06T22:16:39.589Z,14.93
2018-10-06T22:19:07.135Z,11.12
2018-10-06T22:21:34.754Z,9.65
2018-10-06T22:24:02.326Z,13.28
2018-10-06T22:26:29.914Z,11.05
2018-10-06T22:28:58.688Z,10.90
2018-10-06T22:31:26.277Z,9.95
2018-10-06T22:33:53.835Z,10.98
2018-10-06T22:36:21.333Z,11.03
2018-10-06T22:38:48.866Z,11.25
2018-10-06T22:41:16.426Z,10.50
2018-10-06T22:43:44.093Z,10.72
2018-10-06T22:46:11.680Z,11.08
2018-10-06T22:48:39.278Z,10.15
2018-10-06T22:51:06.942Z,11.73
2018-10-06T22:53:34.440Z,16.82
2018-10-06T22:56:02.030Z,10.70
2018-10-06T22:58:29.550Z,11.12
2018-10-06T23:00:57.130Z,11.57
2018-10-06T23:03:24.664Z,10.38
2018-10-06T23:05:52.201Z,9.98
2018-10-06T23:08:19.801Z,13.05
2018-10-06T23:10:47.344Z,10.82
2018-10-06T23:13:14.877Z,11.18
2018-10-06T23:15:42.409Z,10.55
2018-10-06T23:18:09.952Z,11.35
2018-10-06T23:20:37.463Z,9.73
2018-10-06T23:23:05.046Z,9.30
2018-10-06T23:25:32.526Z,9.75
2018-10-06T23:28:00.025Z,10.45
2018-10-06T23:30:27.500Z,11.05
2018-10-06T23:32:54.967Z,10.75
2018-10-06T23:35:22.521Z,12.40
2018-10-06T23:37:50.001Z,12.70
2018-10-06T23:40:17.525Z,10.98
2018-10-06T23:42:45.019Z,10.53
2018-10-06T23:45:12.473Z,9.28
2018-10-06T23:47:39.989Z,11.65
2018-10-06T23:50:07.830Z,13.25
2018-10-06T23:52:35.414Z,10.23
2018-10-06T23:55:02.950Z,10.60
2018-10-06T23:57:30.448Z,10.10
2018-10-06T23:59:57.986Z,9.58
